AirNav   Everest Fuels
 
 1058 users online  

WI73 Happy Jacks Air Strip
Eureka, Wisconsin, USA

GOING TO EUREKA?


FAA INFORMATION EFFECTIVE 15 JULY 2021

Location

FAA Identifier: WI73
Lat/Long: 43-59-59.9330N 088-50-00.4040W
43-59.998883N 088-50.006733W
43.9999814,-88.8334456
(estimated)
Elevation: 800 ft. / 244 m (estimated)
Variation: 01W (1985)
Time zone: UTC -5 (UTC -6 during Standard Time)
Zip code: 54923

Airport Operations

Airport use: Private use. Permission required prior to landing
Activation date: 04/1950
Control tower: no
ARTCC: CHICAGO CENTER
FSS: GREEN BAY FLIGHT SERVICE STATION
Attendance: UNATNDD
Wind indicator: no
Segmented circle: no

Airport Communications

WX ASOS at OSH (12 nm E): PHONE 920-426-1644

Nearby radio navigation aids

VOR radial/distance  VOR name  Freq  Var
OSHr271/12.0OSHKOSH VORTAC116.7502E

 
NDB name  Hdg/Dist  Freq  Var  ID
POBER305/14.139503WOS --- ...
JUNEAU352/34.734401WUNU ..- -. ..-

Airport Services

Airframe service: NONE
Powerplant service: NONE

Runway Information

Runway NW/SE

Dimensions: 1200 x 75 ft. / 366 x 23 m
Surface: turf
RUNWAY NW  RUNWAY SE
Traffic pattern: leftleft
Obstructions: treespline

Airport Ownership and Management from official FAA records

Ownership: Privately-owned
Owner: J. G. LANGEBERG
PO BOX 63
EUREKA, WI 54934

Additional Remarks

FOR CD CTC CHICAGO ARTCC AT 630-906-8921.

Instrument Procedures

There are no published instrument procedures at WI73.

Some nearby airports with instrument procedures:

KOSH - Wittman Regional Airport (12 nm E)
KFLD - Fond Du Lac County Airport (20 nm SE)
Y50 - Wautoma Municipal Airport (21 nm W)
KATW - Appleton International Airport (21 nm NE)
KPCZ - Waupaca Municipal Airport (22 nm N)
 
Loc | Ops | Rwys | IFR | FBO | Links
Com | Nav | Svcs | Stats | Notes
Area around WI73 (Happy Jacks Air Strip)
 
Road maps at: MapQuest Bing Google
 
Aerial photo
No photo
 
Sectional chart

 
Airport distance calculator
Flying to Happy Jacks Air Strip? Find the distance to fly.

From to WI73

Sunrise and sunset
Times for 27-Jul-2021
 Local
(UTC-5)
 Zulu
(UTC)
Morning civil twilight05:0610:06
Sunrise05:3910:39
Sunset20:2501:25
Evening civil twilight20:5801:58

Current date and time
Zulu (UTC)  28-Jul-2021 01:51:13
Local (UTC-5)  27-Jul-2021 20:51:13
 
METAR
KOSH 
12nm E 
280053Z 12009KT 10SM BKN043 OVC050 26/20 A3000 RMK AO2 SLP146 T02560200
KATW 
20nm NE 
280045Z 10006KT 10SM BKN055 24/18 A3000
KY50 
20nm W 
280056Z AUTO 05003KT 10SM OVC041 27/22 A3000 RMK AO2 SLP153 T02720217 PNO $
KFLD 
21nm SE 
280053Z AUTO 10006KT 10SM OVC047 28/19 A3000 RMK AO2 SLP154 T02830194
KPCZ 
22nm N 
280135Z AUTO 00000KT 10SM SCT048 26/23 A3001 RMK AO2 T02560230
TAF
KOSH 
12nm E 
271830Z 2719/2818 29011KT P6SM SCT050 FM272300 31006KT P6SM VCTS BKN050CB FM280300 VRB04KT P6SM SCT050 FM280600 VRB03KT 5SM BR SCT004 TEMPO 2807/2811 1 1/2SM BR BKN004 FM281400 14006KT P6SM FEW040 BKN250
NOTAMs
Click for the latest NOTAMs
NOTAMs are issued by the DoD/FAA and will open in a separate window not controlled by AirNav.

 

 
 

Would you like to see your business listed on this page?

 If your business provides an interesting product or service to pilots, flight crews, aircraft, or users of the Happy Jacks Air Strip, you should consider listing it here.  To start the listing process, click on the button below
 
Add a business
 

Other Pages about Happy Jacks Air Strip

Update a link
 
Copyright © AirNav, LLC. All rights reserved. Privacy Policy  Contact